createdAt,value
2019-03-03T00:01:16.009Z,46.37
2019-03-03T00:03:45.449Z,47.83
2019-03-03T00:06:14.922Z,43.83
2019-03-03T00:08:44.529Z,47.00
2019-03-03T00:11:15.747Z,46.93
2019-03-03T00:13:45.173Z,49.50
2019-03-03T00:16:16.567Z,46.27
2019-03-03T00:18:46.054Z,42.30
2019-03-03T00:21:15.675Z,47.57
2019-03-03T00:23:45.114Z,41.70
2019-03-03T00:26:15.712Z,45.83
2019-03-03T00:28:48.003Z,42.93
2019-03-03T00:31:19.301Z,44.87
2019-03-03T00:33:48.743Z,42.83
2019-03-03T00:36:18.467Z,42.13
2019-03-03T00:38:49.570Z,41.47
2019-03-03T00:41:32.766Z,38.57
2019-03-03T00:44:04.585Z,37.43
2019-03-03T00:46:52.315Z,38.10
2019-03-03T00:49:35.609Z,38.87
2019-03-03T00:52:16.795Z,39.43
2019-03-03T00:54:47.855Z,38.03
2019-03-03T00:57:27.904Z,37.23
2019-03-03T01:00:01.783Z,37.33
2019-03-03T01:02:32.930Z,36.47
2019-03-03T01:05:04.112Z,36.13
2019-03-03T01:07:41.434Z,37.00
2019-03-03T01:10:15.854Z,35.43
2019-03-03T01:13:03.507Z,35.83
2019-03-03T01:15:52.980Z,34.93
2019-03-03T01:18:30.098Z,35.10
2019-03-03T01:21:10.483Z,33.80
2019-03-03T01:23:41.489Z,32.10
2019-03-03T01:26:10.961Z,31.80
2019-03-03T01:28:40.401Z,32.07
2019-03-03T01:31:09.851Z,31.13
2019-03-03T01:33:39.385Z,28.77
2019-03-03T01:36:08.839Z,30.50
2019-03-03T01:38:38.275Z,28.47
2019-03-03T01:41:07.790Z,28.93
2019-03-03T01:43:38.376Z,29.00
2019-03-03T01:46:07.888Z,26.80
2019-03-03T01:48:37.316Z,26.67
2019-03-03T01:51:07.844Z,26.57
2019-03-03T01:53:37.195Z,27.20
2019-03-03T01:56:06.792Z,25.33
2019-03-03T01:58:36.867Z,27.00
2019-03-03T02:01:07.369Z,25.80
2019-03-03T02:03:37.202Z,22.63
2019-03-03T02:06:07.944Z,20.37
2019-03-03T02:08:37.513Z,24.17
2019-03-03T02:11:08.158Z,20.97
2019-03-03T02:13:37.678Z,22.80
2019-03-03T02:16:08.021Z,22.80
2019-03-03T02:18:37.898Z,23.33
2019-03-03T02:21:08.178Z,22.52
2019-03-03T02:23:38.322Z,19.77
2019-03-03T02:26:08.322Z,21.07
2019-03-03T02:28:38.470Z,24.63
2019-03-03T02:31:08.899Z,21.10
2019-03-03T02:33:38.712Z,18.47
2019-03-03T02:36:08.979Z,21.63
2019-03-03T02:38:39.044Z,19.40
2019-03-03T02:41:09.847Z,19.03
2019-03-03T02:43:41.047Z,17.77
2019-03-03T02:46:10.473Z,17.37
2019-03-03T02:48:40.042Z,16.00
2019-03-03T02:51:09.705Z,20.87
2019-03-03T02:53:39.818Z,16.63
2019-03-03T02:56:09.958Z,18.57
2019-03-03T02:58:40.141Z,18.23
2019-03-03T03:01:17.690Z,19.77
2019-03-03T03:03:47.120Z,20.67
2019-03-03T03:06:18.346Z,19.83
2019-03-03T03:09:05.823Z,22.10
2019-03-03T03:11:54.874Z,17.87
2019-03-03T03:14:39.824Z,19.07
2019-03-03T03:17:22.919Z,19.20
2019-03-03T03:19:56.975Z,19.40
2019-03-03T03:22:40.071Z,18.17
2019-03-03T03:25:27.351Z,18.77
2019-03-03T03:28:01.443Z,18.93
2019-03-03T03:30:32.523Z,16.87
2019-03-03T03:33:03.655Z,18.47
2019-03-03T03:35:34.746Z,18.27
2019-03-03T03:38:08.709Z,15.90
2019-03-03T03:40:42.542Z,18.67
2019-03-03T03:43:23.312Z,18.50
2019-03-03T03:45:54.412Z,18.30
2019-03-03T03:48:34.345Z,14.93
2019-03-03T03:51:14.426Z,17.60
2019-03-03T03:53:48.355Z,21.60
2019-03-03T03:56:34.847Z,19.73
2019-03-03T03:59:06.136Z,17.67
2019-03-03T04:01:37.215Z,17.07
2019-03-03T04:04:14.196Z,12.90
2019-03-03T04:06:48.272Z,16.43
2019-03-03T04:09:25.457Z,19.63
2019-03-03T04:12:02.312Z,20.43
2019-03-03T04:14:33.420Z,20.60
2019-03-03T04:17:04.547Z,16.70
2019-03-03T04:19:35.583Z,14.57
2019-03-03T04:22:15.834Z,19.10
2019-03-03T04:24:49.770Z,25.57
2019-03-03T04:27:20.837Z,16.90
2019-03-03T04:29:51.939Z,19.80
2019-03-03T04:32:28.972Z,16.30
2019-03-03T04:35:06.051Z,16.23
2019-03-03T04:37:43.320Z,20.47
2019-03-03T04:40:20.767Z,17.23
2019-03-03T04:42:57.502Z,17.97
2019-03-03T04:45:28.610Z,18.33
2019-03-03T04:47:59.692Z,18.60
2019-03-03T04:50:30.929Z,15.43
2019-03-03T04:53:04.591Z,19.00
2019-03-03T04:55:45.047Z,17.73
2019-03-03T04:58:16.113Z,22.23
2019-03-03T05:00:50.061Z,21.00
2019-03-03T05:03:39.234Z,19.07
2019-03-03T05:06:10.401Z,17.43
2019-03-03T05:08:53.171Z,17.13
2019-03-03T05:12:17.700Z,19.80
2019-03-03T05:14:47.133Z,17.53
2019-03-03T05:17:20.649Z,22.33
2019-03-03T05:19:51.643Z,15.97
2019-03-03T05:22:21.103Z,18.23
2019-03-03T05:24:50.601Z,16.07
2019-03-03T05:27:19.950Z,18.50
2019-03-03T05:29:49.425Z,17.37
2019-03-03T05:32:19.631Z,17.23
2019-03-03T05:34:50.003Z,21.73
2019-03-03T05:37:19.970Z,20.30
2019-03-03T05:39:49.345Z,17.10
2019-03-03T05:42:18.773Z,20.40
2019-03-03T05:44:48.188Z,21.60
2019-03-03T05:47:17.675Z,17.60
2019-03-03T05:49:47.042Z,24.33
2019-03-03T05:52:16.607Z,24.30
2019-03-03T05:54:46.049Z,18.37
2019-03-03T05:57:16.084Z,20.90
2019-03-03T05:59:45.533Z,19.30
2019-03-03T06:02:14.885Z,20.17
2019-03-03T06:04:44.264Z,17.30
2019-03-03T06:07:13.618Z,19.17
2019-03-03T06:09:43.057Z,21.53
2019-03-03T06:12:12.412Z,23.37
2019-03-03T06:14:41.789Z,17.60
2019-03-03T06:17:11.151Z,16.30
2019-03-03T06:19:40.611Z,17.57
2019-03-03T06:22:10.049Z,17.80
2019-03-03T06:24:39.443Z,19.17
2019-03-03T06:27:08.893Z,20.80
2019-03-03T06:29:38.333Z,19.80
2019-03-03T06:32:07.788Z,16.50
2019-03-03T06:34:37.168Z,15.37
2019-03-03T06:37:07.527Z,17.33
2019-03-03T06:39:36.980Z,16.03
2019-03-03T06:42:06.455Z,20.13
2019-03-03T06:44:35.899Z,14.40
2019-03-03T06:47:05.431Z,12.82
2019-03-03T06:49:35.155Z,17.50
2019-03-03T06:52:04.666Z,15.13
2019-03-03T06:54:34.103Z,13.57
2019-03-03T06:57:03.547Z,12.97
2019-03-03T06:59:32.988Z,14.17
2019-03-03T07:02:02.440Z,10.70
2019-03-03T07:04:31.857Z,11.70
2019-03-03T07:07:01.315Z,14.47
2019-03-03T07:09:30.761Z,11.27
2019-03-03T07:12:00.198Z,12.13
2019-03-03T07:14:29.643Z,9.83
2019-03-03T07:16:59.089Z,10.03
2019-03-03T07:19:28.529Z,9.73
2019-03-03T07:21:57.983Z,11.73
2019-03-03T07:24:27.419Z,13.83
2019-03-03T07:26:56.885Z,11.57
2019-03-03T07:29:26.317Z,10.67
2019-03-03T07:31:56.286Z,9.83
2019-03-03T07:34:26.743Z,8.03
2019-03-03T07:36:59.346Z,10.25
2019-03-03T07:39:28.771Z,9.43
2019-03-03T07:41:58.239Z,9.83
2019-03-03T07:44:27.669Z,9.70
2019-03-03T07:46:57.117Z,9.43
2019-03-03T07:49:26.468Z,8.33
2019-03-03T07:51:55.921Z,7.83
2019-03-03T07:54:25.390Z,7.97
2019-03-03T07:56:54.855Z,8.63
2019-03-03T07:59:24.283Z,7.60
2019-03-03T08:01:54.013Z,8.27
2019-03-03T08:04:23.426Z,8.00
2019-03-03T08:06:52.805Z,8.57
2019-03-03T08:09:22.224Z,8.47
2019-03-03T08:11:51.686Z,7.93
2019-03-03T08:14:21.101Z,8.00
2019-03-03T08:16:50.532Z,6.50
2019-03-03T08:19:19.900Z,7.00
2019-03-03T08:21:49.332Z,6.97
2019-03-03T08:24:18.910Z,7.17
2019-03-03T08:26:48.334Z,6.27
2019-03-03T08:29:17.736Z,6.03
2019-03-03T08:31:47.169Z,7.23
2019-03-03T08:34:17.612Z,6.07
2019-03-03T08:36:47.061Z,6.10
2019-03-03T08:39:16.608Z,6.43
2019-03-03T08:41:47.702Z,6.73
2019-03-03T08:44:18.769Z,6.50
2019-03-03T08:47:06.174Z,6.33
2019-03-03T08:49:40.182Z,7.57
2019-03-03T08:52:17.449Z,7.63
2019-03-03T08:55:00.550Z,7.00
2019-03-03T08:57:31.642Z,6.70
2019-03-03T09:00:09.482Z,6.90
2019-03-03T09:02:40.654Z,6.80
2019-03-03T09:05:14.669Z,7.10
2019-03-03T09:07:54.261Z,7.07
2019-03-03T09:10:33.974Z,6.43
2019-03-03T09:13:14.152Z,7.77
2019-03-03T09:15:45.166Z,8.43
2019-03-03T09:18:19.234Z,9.03
2019-03-03T09:20:56.041Z,8.10
2019-03-03T09:23:32.914Z,8.27
2019-03-03T09:26:06.948Z,9.03
2019-03-03T09:28:44.078Z,7.27
2019-03-03T09:31:17.790Z,6.67
2019-03-03T09:34:06.526Z,6.83
2019-03-03T09:36:37.606Z,5.60
2019-03-03T09:39:25.802Z,7.03
2019-03-03T09:41:59.328Z,6.27
2019-03-03T09:44:33.383Z,5.23
2019-03-03T09:47:07.142Z,4.73
2019-03-03T09:49:38.458Z,5.83
2019-03-03T09:52:12.485Z,6.70
2019-03-03T09:54:43.577Z,5.43
2019-03-03T09:57:15.726Z,6.57
2019-03-03T09:59:58.723Z,8.57
2019-03-03T10:02:35.406Z,6.63
2019-03-03T10:05:15.024Z,9.70
2019-03-03T10:08:02.421Z,9.73
2019-03-03T10:10:37.291Z,12.03
2019-03-03T10:13:08.396Z,10.67
2019-03-03T10:15:39.505Z,13.00
2019-03-03T10:18:27.172Z,11.03
2019-03-03T10:21:07.158Z,12.63
2019-03-03T10:23:41.452Z,12.57
2019-03-03T10:26:27.675Z,17.10
2019-03-03T10:29:04.644Z,18.50
2019-03-03T10:31:39.614Z,19.73
2019-03-03T10:34:10.755Z,19.33
2019-03-03T10:36:50.849Z,14.87
2019-03-03T10:39:21.939Z,19.47
2019-03-03T10:42:08.871Z,16.37
2019-03-03T10:44:55.949Z,15.70
2019-03-03T10:47:43.010Z,19.27
2019-03-03T10:50:30.819Z,16.73
2019-03-03T10:53:08.142Z,15.23
2019-03-03T10:55:43.589Z,19.00
2019-03-03T10:58:27.438Z,16.90
2019-03-03T11:01:01.443Z,14.70
2019-03-03T11:03:50.026Z,16.77
2019-03-03T11:06:27.088Z,14.03
2019-03-03T11:09:08.209Z,15.13
2019-03-03T11:11:48.074Z,11.87
2019-03-03T11:14:19.239Z,13.10
2019-03-03T11:16:56.622Z,17.23
2019-03-03T11:19:39.698Z,12.03
2019-03-03T11:22:17.285Z,12.53
2019-03-03T11:24:51.417Z,15.50
2019-03-03T11:27:22.609Z,13.20
2019-03-03T11:29:56.695Z,13.67
2019-03-03T11:32:44.699Z,10.37
2019-03-03T11:35:18.865Z,11.60
2019-03-03T11:37:50.131Z,14.37
2019-03-03T11:40:24.086Z,13.07
2019-03-03T11:43:10.437Z,11.97
2019-03-03T11:45:42.823Z,11.63
2019-03-03T11:48:14.083Z,12.20
2019-03-03T11:50:45.317Z,12.27
2019-03-03T11:53:19.466Z,12.03
2019-03-03T11:55:53.416Z,11.33
2019-03-03T11:58:30.369Z,14.30
2019-03-03T12:01:16.409Z,13.53
2019-03-03T12:03:47.569Z,12.37
2019-03-03T12:06:30.656Z,13.27
2019-03-03T12:09:17.827Z,9.80
2019-03-03T12:11:48.975Z,13.63
2019-03-03T12:14:22.791Z,13.70
2019-03-03T12:16:53.961Z,14.30
2019-03-03T12:19:25.202Z,13.57
2019-03-03T12:22:05.703Z,12.20
2019-03-03T12:24:36.901Z,13.50
2019-03-03T12:27:11.323Z,14.30
2019-03-03T12:29:51.308Z,16.30
2019-03-03T12:32:22.414Z,15.43
2019-03-03T12:34:59.392Z,11.73
2019-03-03T12:37:36.516Z,11.70
2019-03-03T12:40:16.441Z,13.83
2019-03-03T12:42:51.887Z,10.43
2019-03-03T12:45:41.395Z,7.97
2019-03-03T12:48:21.465Z,8.73
2019-03-03T12:50:52.584Z,6.37
2019-03-03T12:53:40.110Z,7.40
2019-03-03T12:56:29.902Z,6.77
2019-03-03T12:59:03.663Z,4.30
2019-03-03T13:01:34.845Z,6.70
2019-03-03T13:04:08.734Z,4.37
2019-03-03T13:06:52.026Z,3.67
2019-03-03T13:09:28.874Z,4.30
2019-03-03T13:12:16.239Z,3.90
2019-03-03T13:14:50.590Z,4.10
2019-03-03T13:17:21.709Z,3.70
2019-03-03T13:20:07.912Z,4.17
2019-03-03T13:22:45.270Z,4.08
2019-03-03T13:25:16.517Z,4.90
2019-03-03T13:27:47.670Z,4.83
2019-03-03T13:30:28.178Z,3.23
2019-03-03T13:33:08.212Z,4.50
2019-03-03T13:35:42.361Z,6.37
2019-03-03T13:38:16.232Z,4.27
2019-03-03T13:40:47.384Z,4.30
2019-03-03T13:43:16.887Z,5.43
2019-03-03T13:45:46.492Z,4.87
2019-03-03T13:48:17.559Z,3.83
2019-03-03T13:50:47.442Z,4.40
2019-03-03T13:53:19.303Z,4.73
2019-03-03T13:55:49.520Z,6.37
2019-03-03T13:58:19.480Z,3.77
2019-03-03T14:00:51.040Z,6.50
2019-03-03T14:03:20.655Z,4.93
2019-03-03T14:05:50.226Z,5.30
2019-03-03T14:08:20.340Z,3.40
2019-03-03T14:10:50.335Z,5.15
2019-03-03T14:13:20.393Z,4.03
2019-03-03T14:15:51.999Z,5.97
2019-03-03T14:18:21.491Z,4.10
2019-03-03T14:20:51.920Z,4.60
2019-03-03T14:23:21.462Z,5.40
2019-03-03T14:25:51.149Z,4.00
2019-03-03T14:28:22.499Z,4.00
2019-03-03T14:30:51.887Z,5.10
2019-03-03T14:33:21.635Z,4.07
2019-03-03T14:35:51.721Z,3.98
2019-03-03T14:38:21.850Z,3.65
2019-03-03T14:40:52.270Z,4.37
2019-03-03T14:43:24.063Z,2.90
2019-03-03T14:45:53.564Z,3.43
2019-03-03T14:48:23.376Z,2.13
2019-03-03T14:50:54.544Z,2.77
2019-03-03T14:53:25.472Z,3.30
2019-03-03T14:55:55.236Z,2.23
2019-03-03T14:58:26.490Z,2.90
2019-03-03T15:00:55.951Z,4.00
2019-03-03T15:03:25.569Z,5.40
2019-03-03T15:05:56.206Z,2.80
2019-03-03T15:08:26.954Z,6.20
2019-03-03T15:10:56.846Z,5.00
2019-03-03T15:13:26.353Z,2.50
2019-03-03T15:15:57.702Z,4.07
2019-03-03T15:18:27.556Z,2.50
2019-03-03T15:20:57.623Z,3.93
2019-03-03T15:23:27.060Z,3.50
2019-03-03T15:25:56.874Z,6.10
2019-03-03T15:28:27.801Z,4.00
2019-03-03T15:30:57.474Z,4.47
2019-03-03T15:33:27.070Z,4.33
2019-03-03T15:35:57.902Z,4.00
2019-03-03T15:38:29.403Z,3.47
2019-03-03T15:40:58.993Z,3.83
2019-03-03T15:43:28.550Z,4.00
2019-03-03T15:45:58.402Z,3.53
2019-03-03T15:48:29.134Z,4.27
2019-03-03T15:51:00.341Z,4.63
2019-03-03T15:53:29.738Z,5.60
2019-03-03T15:56:01.615Z,4.93
2019-03-03T15:58:32.428Z,5.13
2019-03-03T16:01:02.020Z,4.67
2019-03-03T16:03:32.902Z,5.83
2019-03-03T16:06:02.728Z,6.73
2019-03-03T16:08:32.175Z,6.50
2019-03-03T16:11:04.634Z,5.40
2019-03-03T16:13:35.211Z,5.13
2019-03-03T16:16:07.385Z,5.13
2019-03-03T16:18:38.476Z,4.27
2019-03-03T16:21:08.056Z,4.40
2019-03-03T16:23:39.055Z,4.60
2019-03-03T16:26:08.658Z,4.77
2019-03-03T16:28:39.462Z,5.07
2019-03-03T16:31:11.222Z,4.93
2019-03-03T16:33:42.110Z,4.03
2019-03-03T16:36:11.637Z,5.90
2019-03-03T16:38:42.712Z,5.17
2019-03-03T16:41:12.310Z,5.60
2019-03-03T16:43:41.793Z,6.53
2019-03-03T16:46:11.382Z,5.63
2019-03-03T16:48:40.914Z,5.83
2019-03-03T16:51:10.392Z,7.23
2019-03-03T16:53:41.484Z,7.77
2019-03-03T16:56:11.334Z,9.77
2019-03-03T16:58:41.118Z,8.70
2019-03-03T17:01:12.062Z,8.87
2019-03-03T17:03:43.291Z,8.40
2019-03-03T17:06:12.891Z,9.87
2019-03-03T17:08:45.139Z,9.63
2019-03-03T17:11:17.501Z,7.70
2019-03-03T17:13:47.011Z,9.17
2019-03-03T17:16:16.626Z,9.23
2019-03-03T17:18:48.731Z,8.80
2019-03-03T17:21:18.245Z,9.43
2019-03-03T17:23:49.298Z,9.13
2019-03-03T17:26:18.863Z,10.90
2019-03-03T17:28:48.305Z,10.97
2019-03-03T17:31:17.898Z,10.77
2019-03-03T17:33:48.888Z,11.67
2019-03-03T17:36:18.338Z,12.27
2019-03-03T17:38:47.855Z,12.87
2019-03-03T17:41:17.475Z,13.20
2019-03-03T17:43:47.383Z,13.37
2019-03-03T17:46:16.903Z,13.03
2019-03-03T17:48:46.378Z,12.20
2019-03-03T17:51:16.206Z,11.40
2019-03-03T17:53:47.461Z,12.80
2019-03-03T17:56:21.468Z,11.37
2019-03-03T17:58:48.022Z,10.10
2019-03-03T18:01:21.049Z,11.90
2019-03-03T18:03:50.664Z,10.60
2019-03-03T18:06:21.206Z,10.47
2019-03-03T18:08:50.674Z,11.73
2019-03-03T18:11:20.914Z,10.20
2019-03-03T18:13:50.396Z,10.40
2019-03-03T18:16:19.855Z,10.93
2019-03-03T18:18:49.367Z,10.67
2019-03-03T18:21:19.489Z,10.53
2019-03-03T18:23:53.193Z,9.73
2019-03-03T18:26:22.730Z,11.07
2019-03-03T18:28:53.541Z,9.80
2019-03-03T18:31:23.146Z,10.60
2019-03-03T18:33:53.081Z,10.00
2019-03-03T18:36:24.183Z,11.70
2019-03-03T18:38:53.782Z,11.17
2019-03-03T18:41:26.320Z,12.80
2019-03-03T18:43:55.904Z,12.70
2019-03-03T18:46:26.543Z,13.40
2019-03-03T18:48:57.136Z,12.33
2019-03-03T18:51:28.163Z,12.30
2019-03-03T18:53:57.656Z,11.33
2019-03-03T18:56:27.767Z,12.07
2019-03-03T18:58:57.805Z,11.40
2019-03-03T19:01:27.398Z,12.13
2019-03-03T19:03:58.068Z,12.33
2019-03-03T19:06:28.884Z,12.97
2019-03-03T19:08:58.551Z,13.20
2019-03-03T19:11:27.993Z,13.23
2019-03-03T19:14:01.552Z,12.17
2019-03-03T19:16:31.127Z,14.43
2019-03-03T19:19:00.603Z,13.97
2019-03-03T19:21:32.026Z,15.13
2019-03-03T19:24:10.397Z,13.53
2019-03-03T19:26:40.880Z,13.73
2019-03-03T19:29:13.017Z,14.57
2019-03-03T19:31:45.498Z,13.93
2019-03-03T19:34:18.045Z,14.90
2019-03-03T19:36:50.481Z,16.10
2019-03-03T19:39:20.150Z,16.63
2019-03-03T19:41:49.617Z,14.97
2019-03-03T19:44:21.126Z,15.00
2019-03-03T19:46:50.488Z,16.60
2019-03-03T19:49:20.383Z,16.73
2019-03-03T19:51:51.210Z,16.23
2019-03-03T19:54:20.753Z,17.50
2019-03-03T19:56:50.313Z,15.20
2019-03-03T19:59:19.833Z,15.47
2019-03-03T20:01:52.093Z,15.03
2019-03-03T20:04:24.244Z,16.50
2019-03-03T20:06:55.414Z,15.87
2019-03-03T20:09:28.465Z,16.67
2019-03-03T20:11:57.966Z,15.53
2019-03-03T20:14:27.562Z,14.50
2019-03-03T20:16:58.025Z,15.73
2019-03-03T20:19:30.498Z,15.13
2019-03-03T20:22:02.199Z,15.70
2019-03-03T20:24:35.453Z,16.13
2019-03-03T20:27:09.804Z,15.17
2019-03-03T20:29:40.261Z,18.23
2019-03-03T20:32:09.992Z,18.27
2019-03-03T20:34:41.074Z,18.20
2019-03-03T20:37:11.609Z,17.87
2019-03-03T20:39:42.147Z,16.83
2019-03-03T20:42:14.874Z,16.63
2019-03-03T20:44:44.368Z,17.50
2019-03-03T20:47:13.946Z,18.27
2019-03-03T20:49:44.103Z,15.40
2019-03-03T20:52:16.219Z,21.13
2019-03-03T20:54:45.407Z,18.90
2019-03-03T20:57:16.493Z,20.63
2019-03-03T20:59:46.011Z,23.23
2019-03-03T21:02:15.639Z,20.47
2019-03-03T21:04:45.182Z,21.70
2019-03-03T21:07:14.914Z,23.37
2019-03-03T21:09:45.018Z,24.00
2019-03-03T21:12:15.046Z,22.00
2019-03-03T21:14:46.631Z,24.12
2019-03-03T21:17:16.106Z,21.23
2019-03-03T21:19:47.230Z,24.13
2019-03-03T21:22:18.544Z,22.87
2019-03-03T21:24:49.267Z,21.20
2019-03-03T21:27:18.853Z,23.67
2019-03-03T21:29:50.920Z,19.50
2019-03-03T21:32:20.501Z,26.57
2019-03-03T21:34:51.208Z,21.20
2019-03-03T21:37:20.691Z,20.47
2019-03-03T21:39:52.405Z,18.77
2019-03-03T21:42:21.884Z,19.80
2019-03-03T21:44:51.867Z,20.60
2019-03-03T21:47:21.348Z,18.33
2019-03-03T21:49:56.650Z,20.37
2019-03-03T21:52:29.777Z,24.53
2019-03-03T21:54:59.375Z,20.73
2019-03-03T21:57:28.878Z,21.17
2019-03-03T21:59:58.343Z,26.07
2019-03-03T22:02:27.938Z,20.83
2019-03-03T22:04:57.490Z,18.90
2019-03-03T22:07:26.942Z,20.87
2019-03-03T22:09:56.395Z,21.30
2019-03-03T22:12:26.365Z,23.67
2019-03-03T22:14:55.830Z,24.83
2019-03-03T22:17:25.286Z,21.13
2019-03-03T22:19:54.738Z,24.03
2019-03-03T22:22:24.218Z,22.27
2019-03-03T22:24:53.658Z,20.57
2019-03-03T22:27:24.200Z,20.67
2019-03-03T22:29:53.658Z,21.67
2019-03-03T22:32:23.542Z,22.97
2019-03-03T22:34:53.723Z,21.13
2019-03-03T22:37:23.804Z,20.60
2019-03-03T22:39:54.025Z,20.10
2019-03-03T22:42:24.594Z,20.87
2019-03-03T22:44:54.160Z,17.93
2019-03-03T22:47:24.362Z,23.13
2019-03-03T22:49:54.598Z,21.13
2019-03-03T22:52:24.602Z,20.20
2019-03-03T22:54:54.978Z,21.23
2019-03-03T22:57:24.946Z,15.98
2019-03-03T22:59:55.178Z,16.00
2019-03-03T23:02:25.224Z,20.50
2019-03-03T23:05:04.070Z,18.63
2019-03-03T23:07:42.328Z,18.63
2019-03-03T23:10:23.862Z,22.00
2019-03-03T23:13:20.809Z,20.07
2019-03-03T23:15:59.284Z,19.83
2019-03-03T23:18:37.518Z,18.43
2019-03-03T23:21:19.048Z,22.13
2019-03-03T23:24:09.212Z,15.77
2019-03-03T23:26:39.744Z,16.83
2019-03-03T23:29:09.111Z,19.83
2019-03-03T23:31:38.496Z,19.60
2019-03-03T23:34:09.040Z,14.40
2019-03-03T23:36:38.470Z,15.43
2019-03-03T23:39:08.211Z,16.63
2019-03-03T23:41:38.342Z,19.37
2019-03-03T23:44:07.820Z,16.30
2019-03-03T23:46:37.270Z,17.43
2019-03-03T23:49:06.722Z,18.87
2019-03-03T23:51:36.181Z,19.83
2019-03-03T23:54:05.622Z,17.13
2019-03-03T23:56:36.746Z,15.27
2019-03-03T23:59:06.191Z,14.90
